sensor_id;sensor_type;location;lat;lon;timestamp;temperature;humidity
2158;DHT22;41972;48.774;9.282;2023-11-21T00:00:22;7.70;99.90
2158;DHT22;41972;48.774;9.282;2023-11-21T00:02:47;7.80;99.90
2158;DHT22;41972;48.774;9.282;2023-11-21T00:05:14;7.80;99.90
2158;DHT22;41972;48.774;9.282;2023-11-21T00:07:40;7.80;99.90
2158;DHT22;41972;48.774;9.282;2023-11-21T00:10:06;7.90;99.90
2158;DHT22;41972;48.774;9.282;2023-11-21T00:12:34;7.70;99.90
2158;DHT22;41972;48.774;9.282;2023-11-21T00:14:59;7.70;99.90
2158;DHT22;41972;48.774;9.282;2023-11-21T00:17:25;7.60;99.90
2158;DHT22;41972;48.774;9.282;2023-11-21T00:19:50;7.60;99.90
2158;DHT22;41972;48.774;9.282;2023-11-21T00:22:19;7.50;99.90
2158;DHT22;41972;48.774;9.282;2023-11-21T00:24:45;7.50;99.90
2158;DHT22;41972;48.774;9.282;2023-11-21T00:27:11;7.50;99.90
2158;DHT22;41972;48.774;9.282;2023-11-21T00:29:37;7.50;99.90
2158;DHT22;41972;48.774;9.282;2023-11-21T00:32:04;7.50;99.90
2158;DHT22;41972;48.774;9.282;2023-11-21T00:34:31;7.50;99.90
2158;DHT22;41972;48.774;9.282;2023-11-21T00:36:56;7.60;99.90
2158;DHT22;41972;48.774;9.282;2023-11-21T00:39:22;7.70;99.90
2158;DHT22;41972;48.774;9.282;2023-11-21T00:41:47;7.80;99.90
2158;DHT22;41972;48.774;9.282;2023-11-21T00:44:13;7.80;99.90
2158;DHT22;41972;48.774;9.282;2023-11-21T00:46:39;7.60;99.90
2158;DHT22;41972;48.774;9.282;2023-11-21T00:49:04;7.70;99.90
2158;DHT22;41972;48.774;9.282;2023-11-21T00:51:30;7.80;99.90
2158;DHT22;41972;48.774;9.282;2023-11-21T00:53:56;7.70;99.90
2158;DHT22;41972;48.774;9.282;2023-11-21T00:56:23;7.60;99.90
2158;DHT22;41972;48.774;9.282;2023-11-21T00:58:49;7.70;99.90
2158;DHT22;41972;48.774;9.282;2023-11-21T01:01:20;7.80;99.90
2158;DHT22;41972;48.774;9.282;2023-11-21T01:03:47;7.70;99.90
2158;DHT22;41972;48.774;9.282;2023-11-21T01:06:14;7.80;99.90
2158;DHT22;41972;48.774;9.282;2023-11-21T01:08:40;7.90;99.90
2158;DHT22;41972;48.774;9.282;2023-11-21T01:11:05;7.90;99.90
2158;DHT22;41972;48.774;9.282;2023-11-21T01:13:34;7.80;99.90
2158;DHT22;41972;48.774;9.282;2023-11-21T01:16:01;7.80;99.90
2158;DHT22;41972;48.774;9.282;2023-11-21T01:18:26;7.80;99.90
2158;DHT22;41972;48.774;9.282;2023-11-21T01:20:52;7.90;99.90
2158;DHT22;41972;48.774;9.282;2023-11-21T01:23:20;7.80;99.90
2158;DHT22;41972;48.774;9.282;2023-11-21T01:25:46;7.80;99.90
2158;DHT22;41972;48.774;9.282;2023-11-21T01:28:12;8.00;99.90
2158;DHT22;41972;48.774;9.282;2023-11-21T01:30:37;7.90;99.90
2158;DHT22;41972;48.774;9.282;2023-11-21T01:33:03;7.90;99.90
2158;DHT22;41972;48.774;9.282;2023-11-21T01:35:29;8.00;99.90
2158;DHT22;41972;48.774;9.282;2023-11-21T01:37:54;8.00;99.90
2158;DHT22;41972;48.774;9.282;2023-11-21T01:40:20;8.00;99.90
2158;DHT22;41972;48.774;9.282;2023-11-21T01:42:46;8.00;99.90
2158;DHT22;41972;48.774;9.282;2023-11-21T01:45:13;8.10;99.90
2158;DHT22;41972;48.774;9.282;2023-11-21T01:47:41;8.10;99.90
2158;DHT22;41972;48.774;9.282;2023-11-21T01:50:08;8.00;99.90
2158;DHT22;41972;48.774;9.282;2023-11-21T01:52:37;7.90;99.90
2158;DHT22;41972;48.774;9.282;2023-11-21T01:55:05;8.30;99.90
2158;DHT22;41972;48.774;9.282;2023-11-21T01:57:31;8.00;99.90
2158;DHT22;41972;48.774;9.282;2023-11-21T01:59:58;7.80;99.90
2158;DHT22;41972;48.774;9.282;2023-11-21T02:02:26;7.90;99.90
2158;DHT22;41972;48.774;9.282;2023-11-21T02:04:51;7.90;99.90
2158;DHT22;41972;48.774;9.282;2023-11-21T02:07:17;7.90;99.90
2158;DHT22;41972;48.774;9.282;2023-11-21T02:09:44;8.00;99.90
2158;DHT22;41972;48.774;9.282;2023-11-21T02:12:10;7.90;99.90
2158;DHT22;41972;48.774;9.282;2023-11-21T02:14:36;8.00;99.90
2158;DHT22;41972;48.774;9.282;2023-11-21T02:17:02;8.00;99.90
2158;DHT22;41972;48.774;9.282;2023-11-21T02:19:29;8.00;99.90
2158;DHT22;41972;48.774;9.282;2023-11-21T02:21:56;7.90;99.90
2158;DHT22;41972;48.774;9.282;2023-11-21T02:24:28;8.00;99.90
2158;DHT22;41972;48.774;9.282;2023-11-21T02:26:54;7.90;99.90
2158;DHT22;41972;48.774;9.282;2023-11-21T02:29:20;8.00;99.90
2158;DHT22;41972;48.774;9.282;2023-11-21T02:31:54;8.00;99.90
2158;DHT22;41972;48.774;9.282;2023-11-21T02:34:20;7.90;99.90
2158;DHT22;41972;48.774;9.282;2023-11-21T02:36:47;8.10;99.90
2158;DHT22;41972;48.774;9.282;2023-11-21T02:39:15;8.10;99.90
2158;DHT22;41972;48.774;9.282;2023-11-21T02:41:42;8.30;99.90
2158;DHT22;41972;48.774;9.282;2023-11-21T02:44:07;8.30;99.90
2158;DHT22;41972;48.774;9.282;2023-11-21T02:46:34;8.30;99.90
2158;DHT22;41972;48.774;9.282;2023-11-21T02:49:01;8.40;99.90
2158;DHT22;41972;48.774;9.282;2023-11-21T02:51:26;8.40;99.90
2158;DHT22;41972;48.774;9.282;2023-11-21T02:53:52;8.10;99.90
2158;DHT22;41972;48.774;9.282;2023-11-21T02:56:17;8.00;99.90
2158;DHT22;41972;48.774;9.282;2023-11-21T02:58:43;8.10;99.90
2158;DHT22;41972;48.774;9.282;2023-11-21T03:01:09;8.00;99.90
2158;DHT22;41972;48.774;9.282;2023-11-21T03:03:37;8.10;99.90
2158;DHT22;41972;48.774;9.282;2023-11-21T03:06:06;8.20;99.90
2158;DHT22;41972;48.774;9.282;2023-11-21T03:08:32;8.20;99.90
2158;DHT22;41972;48.774;9.282;2023-11-21T03:10:58;8.10;99.90
2158;DHT22;41972;48.774;9.282;2023-11-21T03:13:23;8.00;99.90
2158;DHT22;41972;48.774;9.282;2023-11-21T03:15:49;8.00;99.90
2158;DHT22;41972;48.774;9.282;2023-11-21T03:18:15;8.00;99.90
2158;DHT22;41972;48.774;9.282;2023-11-21T03:20:40;8.10;99.90
2158;DHT22;41972;48.774;9.282;2023-11-21T03:23:06;7.90;99.90
2158;DHT22;41972;48.774;9.282;2023-11-21T03:25:32;7.90;99.90
2158;DHT22;41972;48.774;9.282;2023-11-21T03:27:58;7.80;99.90
2158;DHT22;41972;48.774;9.282;2023-11-21T03:30:23;7.80;99.90
2158;DHT22;41972;48.774;9.282;2023-11-21T03:32:49;7.90;99.90
2158;DHT22;41972;48.774;9.282;2023-11-21T03:35:14;8.00;99.90
2158;DHT22;41972;48.774;9.282;2023-11-21T03:37:40;8.00;99.90
2158;DHT22;41972;48.774;9.282;2023-11-21T03:40:07;7.90;99.90
2158;DHT22;41972;48.774;9.282;2023-11-21T03:42:34;7.90;99.90
2158;DHT22;41972;48.774;9.282;2023-11-21T03:45:00;7.90;99.90
2158;DHT22;41972;48.774;9.282;2023-11-21T03:47:27;8.00;99.90
2158;DHT22;41972;48.774;9.282;2023-11-21T03:49:53;8.20;99.90
2158;DHT22;41972;48.774;9.282;2023-11-21T03:52:18;8.20;99.90
2158;DHT22;41972;48.774;9.282;2023-11-21T03:54:44;8.00;99.90
2158;DHT22;41972;48.774;9.282;2023-11-21T03:57:09;8.00;99.90
2158;DHT22;41972;48.774;9.282;2023-11-21T03:59:35;8.00;99.90
2158;DHT22;41972;48.774;9.282;2023-11-21T04:02:00;8.00;99.90
2158;DHT22;41972;48.774;9.282;2023-11-21T04:04:26;7.90;99.90
2158;DHT22;41972;48.774;9.282;2023-11-21T04:06:51;8.10;99.90
2158;DHT22;41972;48.774;9.282;2023-11-21T04:09:17;8.20;99.90
2158;DHT22;41972;48.774;9.282;2023-11-21T04:11:43;8.10;99.90
2158;DHT22;41972;48.774;9.282;2023-11-21T04:14:10;8.00;99.90
2158;DHT22;41972;48.774;9.282;2023-11-21T04:16:36;8.00;99.90
2158;DHT22;41972;48.774;9.282;2023-11-21T04:19:02;8.10;99.90
2158;DHT22;41972;48.774;9.282;2023-11-21T04:21:27;8.20;99.90
2158;DHT22;41972;48.774;9.282;2023-11-21T04:23:53;8.30;99.90
2158;DHT22;41972;48.774;9.282;2023-11-21T04:26:18;8.40;99.90
2158;DHT22;41972;48.774;9.282;2023-11-21T04:28:44;8.40;99.90
2158;DHT22;41972;48.774;9.282;2023-11-21T04:31:10;8.40;99.90
2158;DHT22;41972;48.774;9.282;2023-11-21T04:33:35;8.40;99.90
2158;DHT22;41972;48.774;9.282;2023-11-21T04:36:01;8.40;99.90
2158;DHT22;41972;48.774;9.282;2023-11-21T04:38:27;8.00;99.90
2158;DHT22;41972;48.774;9.282;2023-11-21T04:40:52;8.00;99.90
2158;DHT22;41972;48.774;9.282;2023-11-21T04:43:18;8.00;99.90
2158;DHT22;41972;48.774;9.282;2023-11-21T04:45:43;7.90;99.90
2158;DHT22;41972;48.774;9.282;2023-11-21T04:48:09;7.80;99.90
2158;DHT22;41972;48.774;9.282;2023-11-21T04:50:35;7.80;99.90
2158;DHT22;41972;48.774;9.282;2023-11-21T04:53:00;7.90;99.90
2158;DHT22;41972;48.774;9.282;2023-11-21T04:55:26;7.80;99.90
2158;DHT22;41972;48.774;9.282;2023-11-21T04:57:53;7.90;99.90
2158;DHT22;41972;48.774;9.282;2023-11-21T05:00:19;8.00;99.90
2158;DHT22;41972;48.774;9.282;2023-11-21T05:02:46;7.90;99.90
2158;DHT22;41972;48.774;9.282;2023-11-21T05:05:12;7.80;99.90
2158;DHT22;41972;48.774;9.282;2023-11-21T05:07:42;7.80;99.90
2158;DHT22;41972;48.774;9.282;2023-11-21T05:10:08;7.70;99.90
2158;DHT22;41972;48.774;9.282;2023-11-21T05:12:37;7.70;99.90
2158;DHT22;41972;48.774;9.282;2023-11-21T05:15:07;7.60;99.90
2158;DHT22;41972;48.774;9.282;2023-11-21T05:17:37;7.60;99.90
2158;DHT22;41972;48.774;9.282;2023-11-21T05:20:05;7.40;99.90
2158;DHT22;41972;48.774;9.282;2023-11-21T05:22:34;7.40;99.90
2158;DHT22;41972;48.774;9.282;2023-11-21T05:25:00;7.20;99.90
2158;DHT22;41972;48.774;9.282;2023-11-21T05:27:25;7.20;99.90
2158;DHT22;41972;48.774;9.282;2023-11-21T05:29:51;7.20;99.90
2158;DHT22;41972;48.774;9.282;2023-11-21T05:32:16;7.10;99.90
2158;DHT22;41972;48.774;9.282;2023-11-21T05:34:43;7.00;99.90
2158;DHT22;41972;48.774;9.282;2023-11-21T05:37:08;7.10;99.90
2158;DHT22;41972;48.774;9.282;2023-11-21T05:39:35;7.00;99.90
2158;DHT22;41972;48.774;9.282;2023-11-21T05:42:01;7.20;99.90
2158;DHT22;41972;48.774;9.282;2023-11-21T05:44:26;7.20;99.90
2158;DHT22;41972;48.774;9.282;2023-11-21T05:46:52;7.20;99.90
2158;DHT22;41972;48.774;9.282;2023-11-21T05:49:18;7.40;99.90
2158;DHT22;41972;48.774;9.282;2023-11-21T05:51:47;7.30;99.90
2158;DHT22;41972;48.774;9.282;2023-11-21T05:54:12;7.50;99.90
2158;DHT22;41972;48.774;9.282;2023-11-21T05:56:38;7.50;99.90
2158;DHT22;41972;48.774;9.282;2023-11-21T05:59:03;7.50;99.90
2158;DHT22;41972;48.774;9.282;2023-11-21T06:01:29;7.50;99.90
2158;DHT22;41972;48.774;9.282;2023-11-21T06:03:54;7.60;99.90
2158;DHT22;41972;48.774;9.282;2023-11-21T06:06:21;7.40;99.90
2158;DHT22;41972;48.774;9.282;2023-11-21T06:08:48;7.30;99.90
2158;DHT22;41972;48.774;9.282;2023-11-21T06:11:14;7.30;99.90
2158;DHT22;41972;48.774;9.282;2023-11-21T06:13:40;7.40;99.90
2158;DHT22;41972;48.774;9.282;2023-11-21T06:16:07;7.30;99.90
2158;DHT22;41972;48.774;9.282;2023-11-21T06:18:33;7.30;99.90
2158;DHT22;41972;48.774;9.282;2023-11-21T06:20:58;7.30;99.90
2158;DHT22;41972;48.774;9.282;2023-11-21T06:23:26;7.50;99.90
2158;DHT22;41972;48.774;9.282;2023-11-21T06:25:51;7.30;99.90
2158;DHT22;41972;48.774;9.282;2023-11-21T06:28:17;7.50;99.90
2158;DHT22;41972;48.774;9.282;2023-11-21T06:30:43;7.50;99.90
2158;DHT22;41972;48.774;9.282;2023-11-21T06:33:10;7.30;99.90
2158;DHT22;41972;48.774;9.282;2023-11-21T06:35:36;7.30;99.90
2158;DHT22;41972;48.774;9.282;2023-11-21T06:38:02;7.40;99.90
2158;DHT22;41972;48.774;9.282;2023-11-21T06:40:28;7.50;99.90
2158;DHT22;41972;48.774;9.282;2023-11-21T06:42:53;7.60;99.90
2158;DHT22;41972;48.774;9.282;2023-11-21T06:45:19;7.80;99.90
2158;DHT22;41972;48.774;9.282;2023-11-21T06:47:45;7.70;99.90
2158;DHT22;41972;48.774;9.282;2023-11-21T06:50:11;7.80;99.90
2158;DHT22;41972;48.774;9.282;2023-11-21T06:52:37;7.50;99.90
2158;DHT22;41972;48.774;9.282;2023-11-21T06:55:03;7.60;99.90
2158;DHT22;41972;48.774;9.282;2023-11-21T06:57:28;7.70;99.90
2158;DHT22;41972;48.774;9.282;2023-11-21T06:59:54;7.70;99.90
2158;DHT22;41972;48.774;9.282;2023-11-21T07:02:19;7.80;99.90
2158;DHT22;41972;48.774;9.282;2023-11-21T07:04:45;7.80;99.90
2158;DHT22;41972;48.774;9.282;2023-11-21T07:07:12;7.80;99.90
2158;DHT22;41972;48.774;9.282;2023-11-21T07:09:39;8.00;99.90
2158;DHT22;41972;48.774;9.282;2023-11-21T07:12:05;7.80;99.90
2158;DHT22;41972;48.774;9.282;2023-11-21T07:14:35;7.90;99.90
2158;DHT22;41972;48.774;9.282;2023-11-21T07:17:02;8.10;99.90
2158;DHT22;41972;48.774;9.282;2023-11-21T07:19:28;8.00;99.90
2158;DHT22;41972;48.774;9.282;2023-11-21T07:21:54;8.20;99.90
2158;DHT22;41972;48.774;9.282;2023-11-21T07:24:20;8.30;99.90
2158;DHT22;41972;48.774;9.282;2023-11-21T07:26:46;8.50;99.90
2158;DHT22;41972;48.774;9.282;2023-11-21T07:29:13;8.70;99.90
2158;DHT22;41972;48.774;9.282;2023-11-21T07:31:38;8.60;99.90
2158;DHT22;41972;48.774;9.282;2023-11-21T07:34:05;8.80;99.90
2158;DHT22;41972;48.774;9.282;2023-11-21T07:36:31;8.80;99.90
2158;DHT22;41972;48.774;9.282;2023-11-21T07:38:56;8.70;99.90
2158;DHT22;41972;48.774;9.282;2023-11-21T07:41:22;8.50;99.90
2158;DHT22;41972;48.774;9.282;2023-11-21T07:43:48;8.80;99.90
2158;DHT22;41972;48.774;9.282;2023-11-21T07:46:13;8.90;99.90
2158;DHT22;41972;48.774;9.282;2023-11-21T07:48:40;8.90;99.90
2158;DHT22;41972;48.774;9.282;2023-11-21T07:51:06;9.10;99.90
2158;DHT22;41972;48.774;9.282;2023-11-21T07:53:32;9.10;99.90
2158;DHT22;41972;48.774;9.282;2023-11-21T07:56:02;8.90;99.90
2158;DHT22;41972;48.774;9.282;2023-11-21T07:58:28;8.90;99.90
2158;DHT22;41972;48.774;9.282;2023-11-21T08:00:53;9.00;99.90
2158;DHT22;41972;48.774;9.282;2023-11-21T08:03:19;9.00;99.90
2158;DHT22;41972;48.774;9.282;2023-11-21T08:05:45;9.10;99.90
2158;DHT22;41972;48.774;9.282;2023-11-21T08:08:10;9.10;99.90
2158;DHT22;41972;48.774;9.282;2023-11-21T08:13:03;9.10;99.90
2158;DHT22;41972;48.774;9.282;2023-11-21T08:15:29;9.10;99.90
2158;DHT22;41972;48.774;9.282;2023-11-21T08:17:54;9.00;99.90
2158;DHT22;41972;48.774;9.282;2023-11-21T08:20:20;9.10;99.90
2158;DHT22;41972;48.774;9.282;2023-11-21T08:22:48;9.20;99.90
2158;DHT22;41972;48.774;9.282;2023-11-21T08:25:13;9.20;99.90
2158;DHT22;41972;48.774;9.282;2023-11-21T08:27:39;9.10;99.90
2158;DHT22;41972;48.774;9.282;2023-11-21T08:30:05;12.10;99.90
2158;DHT22;41972;48.774;9.282;2023-11-21T08:32:32;9.40;99.90
2158;DHT22;41972;48.774;9.282;2023-11-21T08:34:59;9.50;99.90
2158;DHT22;41972;48.774;9.282;2023-11-21T08:37:25;9.50;99.90
2158;DHT22;41972;48.774;9.282;2023-11-21T08:39:52;9.40;99.90
2158;DHT22;41972;48.774;9.282;2023-11-21T08:42:18;9.20;99.90
2158;DHT22;41972;48.774;9.282;2023-11-21T08:44:44;9.10;99.90
2158;DHT22;41972;48.774;9.282;2023-11-21T08:47:09;9.10;99.90
2158;DHT22;41972;48.774;9.282;2023-11-21T08:49:35;9.30;99.90
2158;DHT22;41972;48.774;9.282;2023-11-21T08:52:00;9.30;99.90
2158;DHT22;41972;48.774;9.282;2023-11-21T08:54:26;9.30;99.90
2158;DHT22;41972;48.774;9.282;2023-11-21T08:56:52;9.00;99.90
2158;DHT22;41972;48.774;9.282;2023-11-21T08:59:18;9.10;99.90
2158;DHT22;41972;48.774;9.282;2023-11-21T09:01:45;9.50;99.90
2158;DHT22;41972;48.774;9.282;2023-11-21T09:04:11;9.60;99.90
2158;DHT22;41972;48.774;9.282;2023-11-21T09:06:38;9.60;99.90
2158;DHT22;41972;48.774;9.282;2023-11-21T09:09:05;9.90;99.90
2158;DHT22;41972;48.774;9.282;2023-11-21T09:11:31;9.90;99.90
2158;DHT22;41972;48.774;9.282;2023-11-21T09:13:59;10.20;99.90
2158;DHT22;41972;48.774;9.282;2023-11-21T09:16:25;10.20;99.90
2158;DHT22;41972;48.774;9.282;2023-11-21T09:18:50;10.00;99.90
2158;DHT22;41972;48.774;9.282;2023-11-21T09:21:16;9.90;99.90
2158;DHT22;41972;48.774;9.282;2023-11-21T09:23:46;9.80;99.90
2158;DHT22;41972;48.774;9.282;2023-11-21T09:26:11;9.80;99.90
2158;DHT22;41972;48.774;9.282;2023-11-21T09:28:37;10.00;99.90
2158;DHT22;41972;48.774;9.282;2023-11-21T09:31:04;10.40;99.90
2158;DHT22;41972;48.774;9.282;2023-11-21T09:33:30;10.80;99.90
2158;DHT22;41972;48.774;9.282;2023-11-21T09:35:57;11.00;99.90
2158;DHT22;41972;48.774;9.282;2023-11-21T09:38:23;11.30;99.90
2158;DHT22;41972;48.774;9.282;2023-11-21T09:40:49;11.60;99.90
2158;DHT22;41972;48.774;9.282;2023-11-21T09:43:18;13.70;99.90
2158;DHT22;41972;48.774;9.282;2023-11-21T09:45:48;16.10;99.90
2158;DHT22;41972;48.774;9.282;2023-11-21T09:48:20;15.80;99.90
2158;DHT22;41972;48.774;9.282;2023-11-21T09:50:47;14.80;99.90
2158;DHT22;41972;48.774;9.282;2023-11-21T09:53:20;14.30;99.90
2158;DHT22;41972;48.774;9.282;2023-11-21T09:55:48;12.80;99.90
2158;DHT22;41972;48.774;9.282;2023-11-21T09:58:14;12.70;99.90
2158;DHT22;41972;48.774;9.282;2023-11-21T10:00:41;12.80;99.90
2158;DHT22;41972;48.774;9.282;2023-11-21T10:03:07;11.70;99.90
2158;DHT22;41972;48.774;9.282;2023-11-21T10:05:36;11.00;99.90
2158;DHT22;41972;48.774;9.282;2023-11-21T10:08:04;11.10;99.90
2158;DHT22;41972;48.774;9.282;2023-11-21T10:10:32;10.90;99.90
2158;DHT22;41972;48.774;9.282;2023-11-21T10:13:02;11.20;99.90
2158;DHT22;41972;48.774;9.282;2023-11-21T10:15:29;10.40;99.90
2158;DHT22;41972;48.774;9.282;2023-11-21T10:17:56;10.30;99.90
2158;DHT22;41972;48.774;9.282;2023-11-21T10:20:23;10.20;99.90
2158;DHT22;41972;48.774;9.282;2023-11-21T10:22:50;10.50;99.90
2158;DHT22;41972;48.774;9.282;2023-11-21T10:25:16;10.90;99.90
2158;DHT22;41972;48.774;9.282;2023-11-21T10:27:42;10.60;99.90
2158;DHT22;41972;48.774;9.282;2023-11-21T10:30:09;10.10;99.90
2158;DHT22;41972;48.774;9.282;2023-11-21T10:32:41;10.30;99.90
2158;DHT22;41972;48.774;9.282;2023-11-21T10:35:08;10.10;99.90
2158;DHT22;41972;48.774;9.282;2023-11-21T10:37:36;10.10;99.90
2158;DHT22;41972;48.774;9.282;2023-11-21T10:40:08;10.30;99.90
2158;DHT22;41972;48.774;9.282;2023-11-21T10:42:37;10.40;99.90
2158;DHT22;41972;48.774;9.282;2023-11-21T10:45:04;10.50;99.90
2158;DHT22;41972;48.774;9.282;2023-11-21T10:47:35;10.50;99.90
2158;DHT22;41972;48.774;9.282;2023-11-21T10:50:01;10.40;99.90
2158;DHT22;41972;48.774;9.282;2023-11-21T10:52:27;10.50;99.90
2158;DHT22;41972;48.774;9.282;2023-11-21T10:54:53;10.40;99.90
2158;DHT22;41972;48.774;9.282;2023-11-21T10:57:19;10.60;99.90
2158;DHT22;41972;48.774;9.282;2023-11-21T10:59:47;10.60;99.90
2158;DHT22;41972;48.774;9.282;2023-11-21T11:02:25;10.60;99.90
2158;DHT22;41972;48.774;9.282;2023-11-21T11:04:54;10.50;99.90
2158;DHT22;41972;48.774;9.282;2023-11-21T11:07:27;10.40;99.90
2158;DHT22;41972;48.774;9.282;2023-11-21T11:09:58;10.00;99.90
2158;DHT22;41972;48.774;9.282;2023-11-21T11:12:24;9.60;99.90
2158;DHT22;41972;48.774;9.282;2023-11-21T11:14:51;9.40;99.90
2158;DHT22;41972;48.774;9.282;2023-11-21T11:17:19;9.40;99.90
2158;DHT22;41972;48.774;9.282;2023-11-21T11:19:46;9.50;99.90
2158;DHT22;41972;48.774;9.282;2023-11-21T11:22:37;9.70;99.90
2158;DHT22;41972;48.774;9.282;2023-11-21T11:25:25;9.40;99.90
2158;DHT22;41972;48.774;9.282;2023-11-21T11:28:10;9.20;99.90
2158;DHT22;41972;48.774;9.282;2023-11-21T11:31:00;9.70;99.90
2158;DHT22;41972;48.774;9.282;2023-11-21T11:33:50;9.90;99.90
2158;DHT22;41972;48.774;9.282;2023-11-21T11:36:43;10.00;99.90
2158;DHT22;41972;48.774;9.282;2023-11-21T11:39:29;10.10;99.90
2158;DHT22;41972;48.774;9.282;2023-11-21T11:41:58;9.90;99.90
2158;DHT22;41972;48.774;9.282;2023-11-21T11:44:46;10.30;99.90
2158;DHT22;41972;48.774;9.282;2023-11-21T11:50:00;10.50;99.90
2158;DHT22;41972;48.774;9.282;2023-11-21T11:55:02;11.00;99.90
2158;DHT22;41972;48.774;9.282;2023-11-21T11:57:32;11.60;99.90
2158;DHT22;41972;48.774;9.282;2023-11-21T12:00:09;11.80;99.90
2158;DHT22;41972;48.774;9.282;2023-11-21T12:02:36;11.90;99.90
2158;DHT22;41972;48.774;9.282;2023-11-21T12:05:09;11.60;99.90
2158;DHT22;41972;48.774;9.282;2023-11-21T12:07:51;11.80;99.90
2158;DHT22;41972;48.774;9.282;2023-11-21T12:10:23;10.80;99.90
2158;DHT22;41972;48.774;9.282;2023-11-21T12:12:57;10.50;99.90
2158;DHT22;41972;48.774;9.282;2023-11-21T12:15:24;10.30;99.90
2158;DHT22;41972;48.774;9.282;2023-11-21T12:17:51;10.70;99.90
2158;DHT22;41972;48.774;9.282;2023-11-21T12:20:24;10.40;99.90
2158;DHT22;41972;48.774;9.282;2023-11-21T12:22:52;10.30;99.90
2158;DHT22;41972;48.774;9.282;2023-11-21T12:25:25;10.30;99.90
2158;DHT22;41972;48.774;9.282;2023-11-21T12:27:54;10.30;99.90
2158;DHT22;41972;48.774;9.282;2023-11-21T12:30:21;10.30;99.90
2158;DHT22;41972;48.774;9.282;2023-11-21T12:32:52;10.20;99.90
2158;DHT22;41972;48.774;9.282;2023-11-21T12:35:19;10.60;99.90
2158;DHT22;41972;48.774;9.282;2023-11-21T12:37:46;10.80;99.90
2158;DHT22;41972;48.774;9.282;2023-11-21T12:40:13;10.80;99.90
2158;DHT22;41972;48.774;9.282;2023-11-21T12:42:46;10.50;99.90
2158;DHT22;41972;48.774;9.282;2023-11-21T12:47:47;10.80;99.90
2158;DHT22;41972;48.774;9.282;2023-11-21T12:50:15;10.80;99.90
2158;DHT22;41972;48.774;9.282;2023-11-21T12:52:45;10.20;99.90
2158;DHT22;41972;48.774;9.282;2023-11-21T12:55:20;10.00;99.90
2158;DHT22;41972;48.774;9.282;2023-11-21T12:57:52;9.70;99.90
2158;DHT22;41972;48.774;9.282;2023-11-21T13:00:20;10.10;99.90
2158;DHT22;41972;48.774;9.282;2023-11-21T13:02:53;9.80;99.90
2158;DHT22;41972;48.774;9.282;2023-11-21T13:07:59;9.90;99.90
2158;DHT22;41972;48.774;9.282;2023-11-21T13:10:26;9.80;99.90
2158;DHT22;41972;48.774;9.282;2023-11-21T13:12:59;9.80;99.90
2158;DHT22;41972;48.774;9.282;2023-11-21T13:15:26;9.80;99.90
2158;DHT22;41972;48.774;9.282;2023-11-21T13:17:52;9.90;99.90
2158;DHT22;41972;48.774;9.282;2023-11-21T13:20:19;9.80;99.90
2158;DHT22;41972;48.774;9.282;2023-11-21T13:22:56;9.80;99.90
2158;DHT22;41972;48.774;9.282;2023-11-21T13:25:27;10.30;99.90
2158;DHT22;41972;48.774;9.282;2023-11-21T13:27:56;10.50;99.90
2158;DHT22;41972;48.774;9.282;2023-11-21T13:30:23;10.60;99.90
2158;DHT22;41972;48.774;9.282;2023-11-21T13:32:53;10.90;99.90
2158;DHT22;41972;48.774;9.282;2023-11-21T13:35:19;10.40;99.90
2158;DHT22;41972;48.774;9.282;2023-11-21T13:37:56;10.20;99.90
2158;DHT22;41972;48.774;9.282;2023-11-21T13:40:25;9.80;99.90
2158;DHT22;41972;48.774;9.282;2023-11-21T13:42:55;9.40;99.90
2158;DHT22;41972;48.774;9.282;2023-11-21T13:45:23;9.20;99.90
2158;DHT22;41972;48.774;9.282;2023-11-21T13:47:51;9.30;99.90
2158;DHT22;41972;48.774;9.282;2023-11-21T13:50:20;9.30;99.90
2158;DHT22;41972;48.774;9.282;2023-11-21T13:52:50;9.00;99.90
2158;DHT22;41972;48.774;9.282;2023-11-21T13:55:19;9.00;99.90
2158;DHT22;41972;48.774;9.282;2023-11-21T13:57:47;8.90;99.90
2158;DHT22;41972;48.774;9.282;2023-11-21T14:00:17;9.00;99.90
2158;DHT22;41972;48.774;9.282;2023-11-21T14:03:01;9.10;99.90
2158;DHT22;41972;48.774;9.282;2023-11-21T14:05:27;9.20;99.90
2158;DHT22;41972;48.774;9.282;2023-11-21T14:07:57;9.10;99.90
2158;DHT22;41972;48.774;9.282;2023-11-21T14:10:29;9.00;99.90
2158;DHT22;41972;48.774;9.282;2023-11-21T14:13:05;9.00;99.90
2158;DHT22;41972;48.774;9.282;2023-11-21T14:15:32;9.00;99.90
2158;DHT22;41972;48.774;9.282;2023-11-21T14:17:59;9.00;99.90
2158;DHT22;41972;48.774;9.282;2023-11-21T14:20:31;9.10;99.90
2158;DHT22;41972;48.774;9.282;2023-11-21T14:22:58;9.10;99.90
2158;DHT22;41972;48.774;9.282;2023-11-21T14:25:24;9.10;99.90
2158;DHT22;41972;48.774;9.282;2023-11-21T14:27:51;9.00;99.90
2158;DHT22;41972;48.774;9.282;2023-11-21T14:30:16;8.90;99.90
2158;DHT22;41972;48.774;9.282;2023-11-21T14:32:44;8.90;99.90
2158;DHT22;41972;48.774;9.282;2023-11-21T14:35:10;8.90;99.90
2158;DHT22;41972;48.774;9.282;2023-11-21T14:37:36;9.00;99.90
2158;DHT22;41972;48.774;9.282;2023-11-21T14:40:01;9.10;99.90
2158;DHT22;41972;48.774;9.282;2023-11-21T14:42:29;9.00;99.90
2158;DHT22;41972;48.774;9.282;2023-11-21T14:44:55;9.00;99.90
2158;DHT22;41972;48.774;9.282;2023-11-21T14:47:25;9.00;99.90
2158;DHT22;41972;48.774;9.282;2023-11-21T14:49:52;9.00;99.90
2158;DHT22;41972;48.774;9.282;2023-11-21T14:52:22;8.90;99.90
2158;DHT22;41972;48.774;9.282;2023-11-21T14:55:04;8.70;99.90
2158;DHT22;41972;48.774;9.282;2023-11-21T14:57:45;8.70;99.90
2158;DHT22;41972;48.774;9.282;2023-11-21T15:00:16;8.70;99.90
2158;DHT22;41972;48.774;9.282;2023-11-21T15:03:05;8.70;99.90
2158;DHT22;41972;48.774;9.282;2023-11-21T15:05:32;8.70;99.90
2158;DHT22;41972;48.774;9.282;2023-11-21T15:08:00;8.70;99.90
2158;DHT22;41972;48.774;9.282;2023-11-21T15:10:45;8.70;99.90
2158;DHT22;41972;48.774;9.282;2023-11-21T15:13:14;8.70;99.90
2158;DHT22;41972;48.774;9.282;2023-11-21T15:15:41;8.60;99.90
2158;DHT22;41972;48.774;9.282;2023-11-21T15:18:07;8.70;99.90
2158;DHT22;41972;48.774;9.282;2023-11-21T15:20:33;8.70;99.90
2158;DHT22;41972;48.774;9.282;2023-11-21T15:22:58;8.50;99.90
2158;DHT22;41972;48.774;9.282;2023-11-21T15:25:25;8.60;99.90
2158;DHT22;41972;48.774;9.282;2023-11-21T15:27:50;8.70;99.90
2158;DHT22;41972;48.774;9.282;2023-11-21T15:30:16;8.70;99.90
2158;DHT22;41972;48.774;9.282;2023-11-21T15:32:50;8.70;99.90
2158;DHT22;41972;48.774;9.282;2023-11-21T15:35:16;8.70;99.90
2158;DHT22;41972;48.774;9.282;2023-11-21T15:37:42;8.70;99.90
2158;DHT22;41972;48.774;9.282;2023-11-21T15:40:09;8.60;99.90
2158;DHT22;41972;48.774;9.282;2023-11-21T15:42:35;8.60;99.90
2158;DHT22;41972;48.774;9.282;2023-11-21T15:45:04;8.60;99.90
2158;DHT22;41972;48.774;9.282;2023-11-21T15:47:32;8.70;99.90
2158;DHT22;41972;48.774;9.282;2023-11-21T15:49:58;8.70;99.90
2158;DHT22;41972;48.774;9.282;2023-11-21T15:52:24;8.70;99.90
2158;DHT22;41972;48.774;9.282;2023-11-21T15:54:49;8.70;99.90
2158;DHT22;41972;48.774;9.282;2023-11-21T15:57:15;8.70;99.90
2158;DHT22;41972;48.774;9.282;2023-11-21T15:59:42;8.70;99.90
2158;DHT22;41972;48.774;9.282;2023-11-21T16:02:10;8.70;99.90
2158;DHT22;41972;48.774;9.282;2023-11-21T16:04:36;8.70;99.90
2158;DHT22;41972;48.774;9.282;2023-11-21T16:07:05;8.60;99.90
2158;DHT22;41972;48.774;9.282;2023-11-21T16:09:33;8.50;99.90
2158;DHT22;41972;48.774;9.282;2023-11-21T16:12:01;8.40;99.90